Time;durP1;ratioP1;P1;durP2;ratioP2;P2;SDS_P1;SDS_P2;PMS_P1;PMS_P2;Temp;Humidity;BMP_temperature;BMP_pressure;BME280_temperature;BME280_humidity;BME280_pressure;Samples;Min_cycle;Max_cycle;Signal;HPM_P1;HPM_P2
2023/02/23 00:01:10;;;;;;;;;;;;;;;10.84;71.10;100768.47;5016696;28;19914;-77
2023/02/23 00:04:02;;;;;;;;;;;;;;;10.89;70.62;100763.69;5016286;28;19914;-77
2023/02/23 00:06:55;;;;;;;;;;;;;;;10.93;70.06;100759.22;5015838;28;20309;-76
2023/02/23 00:09:44;;;;;;;;;;;;;;;10.87;70.50;100760.47;5015077;28;19913;-76
2023/02/23 00:12:36;;;;;;;;;;;;;;;10.77;71.34;100760.75;5015954;28;20394;-76
2023/02/23 00:15:28;;;;;;;;;;;;;;;10.80;71.04;100770.22;5018598;28;20301;-77
2023/02/23 00:18:19;;;;;;;;;;;;;;;10.82;70.97;100763.34;5016010;28;19917;-77
2023/02/23 00:21:11;;;;;;;;;;;;;;;10.75;71.16;100760.28;5018914;28;19913;-77
2023/02/23 00:24:06;;;;;;;;;;;;;;;10.71;71.21;100756.59;5016174;28;19913;-77
2023/02/23 00:26:59;;;;;;;;;;;;;;;10.71;71.45;100756.59;5016039;28;19918;-77
2023/02/23 00:29:52;;;;;;;;;;;;;;;10.59;71.40;100759.91;5014818;28;20294;-77
2023/02/23 00:32:41;;;;;;;;;;;;;;;10.58;72.29;100757.50;5016005;28;19913;-77
2023/02/23 00:35:34;;;;;;;;;;;;;;;10.71;71.56;100748.44;5016118;28;19932;-76
2023/02/23 00:38:26;;;;;;;;;;;;;;;10.66;71.54;100748.59;5015451;28;19913;-76
2023/02/23 00:41:18;;;;;;;;;;;;;;;10.55;71.98;100745.34;5015852;28;19914;-76
2023/02/23 00:44:10;;;;;;;;;;;;;;;10.56;72.02;100744.25;5014285;28;19917;-77
2023/02/23 00:47:03;;;;;;;;;;;;;;;10.62;71.85;100742.97;5016037;28;19917;-77
2023/02/23 00:49:55;;;;;;;;;;;;;;;10.70;71.33;100735.97;5016021;28;19932;-78
2023/02/23 00:52:48;;;;;;;;;;;;;;;10.78;71.40;100740.63;5016311;28;19987;-77
2023/02/23 00:55:42;;;;;;;;;;;;;;;10.89;71.21;100733.78;5015040;28;19914;-77
2023/02/23 00:58:34;;;;;;;;;;;;;;;10.72;71.85;100736.44;5019395;28;19913;-77
2023/02/23 01:01:27;;;;;;;;;;;;;;;10.68;71.88;100735.47;5016584;28;19913;-76
2023/02/23 01:04:19;;;;;;;;;;;;;;;10.57;72.57;100734.94;5019822;28;19917;-76
2023/02/23 01:07:11;;;;;;;;;;;;;;;10.75;71.88;100727.66;4995874;28;19918;-77
2023/02/23 01:10:01;;;;;;;;;;;;;;;10.77;72.04;100736.28;4995773;28;20286;-77
2023/02/23 01:12:53;;;;;;;;;;;;;;;10.67;72.96;100731.13;4994076;28;19914;-77
2023/02/23 01:15:45;;;;;;;;;;;;;;;10.78;71.83;100729.72;5007128;28;20301;-77
2023/02/23 01:18:36;;;;;;;;;;;;;;;10.70;72.19;100727.81;5015629;28;19913;-77
2023/02/23 01:21:25;;;;;;;;;;;;;;;10.70;72.26;100730.53;5018469;28;19913;-82
2023/02/23 01:24:17;;;;;;;;;;;;;;;10.68;73.27;100724.59;5015453;28;19914;-77
2023/02/23 01:27:07;;;;;;;;;;;;;;;10.80;72.76;100726.72;5014885;28;20390;-77
2023/02/23 01:29:59;;;;;;;;;;;;;;;10.72;73.10;100725.56;5018354;28;19935;-78
2023/02/23 01:32:51;;;;;;;;;;;;;;;10.77;72.73;100719.97;5013947;28;19913;-77
2023/02/23 01:35:43;;;;;;;;;;;;;;;10.77;72.64;100716.47;5018676;28;19914;-77
2023/02/23 01:38:35;;;;;;;;;;;;;;;10.83;72.83;100715.19;5013875;28;19913;-77
2023/02/23 01:41:29;;;;;;;;;;;;;;;10.82;72.67;100706.22;5014693;28;20000;-78
2023/02/23 01:44:23;;;;;;;;;;;;;;;10.69;73.18;100705.25;5018517;28;20297;-77
2023/02/23 01:47:18;;;;;;;;;;;;;;;10.92;72.51;100714.06;5013790;28;19917;-78
2023/02/23 01:50:08;;;;;;;;;;;;;;;10.92;72.28;100697.75;5015330;28;19914;-78
2023/02/23 01:52:59;;;;;;;;;;;;;;;10.84;72.91;100695.84;5014990;28;19913;-77
2023/02/23 01:55:51;;;;;;;;;;;;;;;10.88;72.23;100704.16;5014501;28;19913;-77
2023/02/23 01:58:47;;;;;;;;;;;;;;;11.05;71.38;100696.84;5008806;28;19914;-77
2023/02/23 02:01:39;;;;;;;;;;;;;;;11.20;71.29;100695.56;5016000;28;20370;-77
2023/02/23 02:04:32;;;;;;;;;;;;;;;11.10;71.52;100699.41;5013844;28;19913;-77
2023/02/23 02:07:25;;;;;;;;;;;;;;;11.01;72.03;100695.88;5013622;28;19976;-77
2023/02/23 02:10:38;;;;;;;;;;;;;;;10.43;74.13;100695.38;5001765;28;20309;-77
2023/02/23 02:13:28;;;;;;;;;;;;;;;10.39;75.07;100694.44;5013364;28;19914;-77
2023/02/23 02:16:20;;;;;;;;;;;;;;;10.57;74.37;100685.19;5013352;28;20374;-76
2023/02/23 02:19:31;;;;;;;;;;;;;;;10.43;74.81;100679.88;5005863;28;19913;-77
2023/02/23 02:22:40;;;;;;;;;;;;;;;10.36;75.44;100684.19;5016150;28;19913;-77
2023/02/23 02:25:49;;;;;;;;;;;;;;;10.52;74.54;100683.44;5013467;28;20309;-77
2023/02/23 02:28:44;;;;;;;;;;;;;;;10.77;73.60;100681.88;5015844;28;20297;-77
2023/02/23 02:32:01;;;;;;;;;;;;;;;10.86;73.11;100677.28;5013884;28;20390;-77
2023/02/23 02:35:06;;;;;;;;;;;;;;;11.08;72.41;100676.31;5016632;28;19914;-77
2023/02/23 02:38:03;;;;;;;;;;;;;;;11.12;71.55;100675.38;5013513;28;19914;-76
2023/02/23 02:41:02;;;;;;;;;;;;;;;11.00;72.39;100661.63;5016628;28;19913;-77
2023/02/23 02:43:56;;;;;;;;;;;;;;;11.02;71.85;100664.78;5013658;28;19913;-77
2023/02/23 02:46:49;;;;;;;;;;;;;;;11.14;71.80;100670.41;5017831;28;19918;-77
2023/02/23 02:49:52;;;;;;;;;;;;;;;11.18;71.30;100667.84;5016674;28;19914;-77
2023/02/23 02:53:11;;;;;;;;;;;;;;;11.11;71.85;100665.63;5018854;28;19922;-77
2023/02/23 02:56:04;;;;;;;;;;;;;;;11.15;71.60;100669.31;5001831;28;19913;-77
2023/02/23 02:58:54;;;;;;;;;;;;;;;11.07;72.14;100666.59;5022193;28;19918;-76
2023/02/23 04:18:25;;;;;;;;;;;;;;;10.52;77.32;100679.91;5016326;28;19914;-77
2023/02/23 04:21:17;;;;;;;;;;;;;;;10.74;75.64;100679.81;5016074;28;19914;-77
2023/02/23 04:24:09;;;;;;;;;;;;;;;10.78;74.97;100682.69;5015720;28;19913;-77
2023/02/23 04:27:01;;;;;;;;;;;;;;;10.79;74.68;100682.38;5019845;28;19917;-78
2023/02/23 04:29:48;;;;;;;;;;;;;;;10.89;74.74;100682.06;5018226;28;19917;-77
2023/02/23 04:32:38;;;;;;;;;;;;;;;11.03;73.79;100681.94;5016265;28;19933;-78
2023/02/23 04:35:30;;;;;;;;;;;;;;;11.12;73.28;100678.09;5015860;28;19914;-77
2023/02/23 04:38:19;;;;;;;;;;;;;;;11.19;72.72;100674.09;5017367;28;19914;-77
2023/02/23 04:41:11;;;;;;;;;;;;;;;11.23;72.69;100675.06;5016262;28;19925;-78
2023/02/23 04:44:03;;;;;;;;;;;;;;;11.14;73.08;100678.59;5018780;28;20293;-78
2023/02/23 04:46:50;;;;;;;;;;;;;;;10.94;73.49;100683.84;5016716;28;19918;-77
2023/02/23 04:49:42;;;;;;;;;;;;;;;10.98;74.03;100680.16;5012960;28;19913;-78
2023/02/23 04:52:34;;;;;;;;;;;;;;;11.22;72.61;100678.91;5016024;28;19913;-77
2023/02/23 04:55:24;;;;;;;;;;;;;;;10.82;74.34;100689.91;5015938;28;20378;-77
2023/02/23 04:58:16;;;;;;;;;;;;;;;10.97;74.16;100681.28;5016484;28;19913;-78
2023/02/23 05:01:09;;;;;;;;;;;;;;;10.98;73.61;100687.53;5000466;28;20394;-78
2023/02/23 05:04:00;;;;;;;;;;;;;;;10.93;74.08;100690.41;5016523;28;19917;-78
2023/02/23 05:06:52;;;;;;;;;;;;;;;11.05;73.79;100687.88;5015954;28;19917;-78
2023/02/23 05:09:44;;;;;;;;;;;;;;;11.02;73.84;100686.56;5016489;28;19917;-78
2023/02/23 05:12:36;;;;;;;;;;;;;;;11.05;73.19;100691.38;5012162;28;19913;-78
2023/02/23 05:15:28;;;;;;;;;;;;;;;11.10;73.69;100693.94;5000203;28;19913;-78
2023/02/23 05:18:18;;;;;;;;;;;;;;;11.32;72.36;100689.47;5016324;28;20382;-78
2023/02/23 05:21:08;;;;;;;;;;;;;;;11.41;72.13;100690.28;5019593;28;19913;-78
2023/02/23 05:23:57;;;;;;;;;;;;;;;11.37;71.72;100686.59;5014249;28;19913;-78
2023/02/23 05:26:49;;;;;;;;;;;;;;;11.45;71.39;100683.06;5016367;28;19928;-78
2023/02/23 05:29:41;;;;;;;;;;;;;;;10.40;75.88;100682.44;5013882;28;19917;-78
2023/02/23 05:32:33;;;;;;;;;;;;;;;10.64;76.14;100680.91;5016335;28;19914;-78
2023/02/23 05:35:25;;;;;;;;;;;;;;;11.00;73.95;100680.66;5015686;28;20400;-78
2023/02/23 05:38:17;;;;;;;;;;;;;;;11.17;73.22;100679.06;5017998;28;19913;-78
2023/02/23 05:41:08;;;;;;;;;;;;;;;11.20;72.64;100684.66;5015428;28;20397;-78
2023/02/23 05:44:01;;;;;;;;;;;;;;;11.15;72.57;100685.63;5018101;28;19917;-78
2023/02/23 05:46:53;;;;;;;;;;;;;;;11.29;72.56;100680.03;5016091;28;20385;-78
2023/02/23 05:49:44;;;;;;;;;;;;;;;11.37;71.39;100681.16;5016625;28;19917;-78
2023/02/23 05:52:35;;;;;;;;;;;;;;;11.10;72.67;100680.34;5017203;28;19913;-78
2023/02/23 05:55:27;;;;;;;;;;;;;;;11.12;72.37;100672.66;5014265;28;19913;-78
2023/02/23 05:58:17;;;;;;;;;;;;;;;11.26;72.21;100688.03;5016333;28;19913;-78
2023/02/23 06:01:06;;;;;;;;;;;;;;;11.36;71.85;100685.00;5018650;28;19913;-77
2023/02/23 06:03:54;;;;;;;;;;;;;;;11.31;71.53;100682.44;5017018;28;19913;-78
2023/02/23 06:06:44;;;;;;;;;;;;;;;11.05;72.50;100683.22;5016301;28;19917;-77
2023/02/23 06:09:33;;;;;;;;;;;;;;;10.79;73.57;100687.81;5009565;28;19913;-78
2023/02/23 06:12:22;;;;;;;;;;;;;;;10.82;73.90;100680.97;5005692;28;20338;-78
2023/02/23 06:15:13;;;;;;;;;;;;;;;10.82;73.57;100695.34;5019826;28;19913;-79
2023/02/23 06:18:01;;;;;;;;;;;;;;;10.88;74.22;100699.50;5015771;28;19913;-79
2023/02/23 06:20:50;;;;;;;;;;;;;;;10.84;73.51;100698.56;5016272;28;19914;-78
2023/02/23 06:23:42;;;;;;;;;;;;;;;10.70;74.65;100697.88;5020284;28;19921;-79
2023/02/23 06:26:34;;;;;;;;;;;;;;;10.86;74.29;100698.25;5021263;28;19917;-79
2023/02/23 06:29:21;;;;;;;;;;;;;;;10.60;75.31;100703.63;5032121;28;19917;-79
2023/02/23 06:32:11;;;;;;;;;;;;;;;10.90;74.29;100707.38;5025746;28;20401;-78
2023/02/23 06:35:07;;;;;;;;;;;;;;;10.73;74.75;100716.28;5013049;28;19913;-78
2023/02/23 06:37:58;;;;;;;;;;;;;;;11.00;73.90;100715.22;5017756;28;19922;-79
2023/02/23 06:40:50;;;;;;;;;;;;;;;11.18;72.93;100716.03;5013964;28;20378;-79
2023/02/23 06:43:42;;;;;;;;;;;;;;;10.69;74.80;100726.19;5013926;28;19917;-78
2023/02/23 06:46:32;;;;;;;;;;;;;;;10.80;74.85;100727.50;5013332;28;19921;-78
2023/02/23 06:49:21;;;;;;;;;;;;;;;10.59;75.52;100730.00;5012763;28;19921;-78
2023/02/23 06:52:16;;;;;;;;;;;;;;;10.24;77.36;100730.97;5015923;28;19921;-78
2023/02/23 06:55:09;;;;;;;;;;;;;;;10.37;77.29;100738.22;5004213;28;19913;-78
2023/02/23 06:58:00;;;;;;;;;;;;;;;10.32;77.86;100743.00;5016272;28;19914;-78
2023/02/23 07:00:52;;;;;;;;;;;;;;;10.43;77.62;100745.13;5019049;28;19913;-78
2023/02/23 07:03:44;;;;;;;;;;;;;;;10.42;77.68;100748.94;5021460;28;19917;-78
2023/02/23 07:06:34;;;;;;;;;;;;;;;10.46;77.95;100746.44;5015244;28;19917;-77
2023/02/23 07:09:26;;;;;;;;;;;;;;;10.46;77.97;100747.25;5018275;28;19913;-77
2023/02/23 07:12:18;;;;;;;;;;;;;;;10.77;76.91;100749.88;5014127;28;19914;-78
2023/02/23 07:15:10;;;;;;;;;;;;;;;11.01;75.73;100744.03;5011937;28;19914;-78
2023/02/23 07:18:02;;;;;;;;;;;;;;;10.98;75.10;100750.09;5044522;28;19917;-78
2023/02/23 07:20:51;;;;;;;;;;;;;;;10.43;77.17;100752.47;5010307;28;19917;-79
2023/02/23 07:23:43;;;;;;;;;;;;;;;9.60;81.94;100748.59;5018371;28;20394;-80
2023/02/23 07:26:35;;;;;;;;;;;;;;;9.42;83.89;100753.88;5038715;28;19917;-79
2023/02/23 07:29:27;;;;;;;;;;;;;;;9.28;84.80;100758.53;5025925;28;19913;-80
2023/02/23 07:32:19;;;;;;;;;;;;;;;9.35;85.34;100766.25;5000190;28;19913;-80
2023/02/23 07:35:12;;;;;;;;;;;;;;;9.33;85.45;100760.34;4999413;28;19917;-80
2023/02/23 07:38:03;;;;;;;;;;;;;;;9.47;85.62;100763.81;5012269;28;19913;-80
2023/02/23 07:40:55;;;;;;;;;;;;;;;9.38;85.58;100766.47;5011739;28;19932;-80
2023/02/23 07:43:47;;;;;;;;;;;;;;;9.43;85.67;100770.97;5018654;28;19922;-79
2023/02/23 07:46:39;;;;;;;;;;;;;;;9.47;85.94;100766.53;5013561;28;19918;-80
2023/02/23 07:49:29;;;;;;;;;;;;;;;9.57;85.83;100765.47;5017076;28;19913;-79
2023/02/23 07:52:21;;;;;;;;;;;;;;;9.80;85.16;100769.84;5002748;28;19917;-79
2023/02/23 07:55:13;;;;;;;;;;;;;;;9.71;85.17;100761.59;5024101;28;19913;-79
2023/02/23 07:58:05;;;;;;;;;;;;;;;9.74;84.61;100766.44;5022193;28;19916;-79
2023/02/23 08:00:57;;;;;;;;;;;;;;;9.93;84.28;100766.25;5017788;28;19917;-79
2023/02/23 08:03:49;;;;;;;;;;;;;;;10.01;83.91;100770.91;5026958;28;19914;-79
2023/02/23 08:06:41;;;;;;;;;;;;;;;9.97;83.40;100769.94;5034262;28;19920;-79
2023/02/23 08:09:33;;;;;;;;;;;;;;;10.14;81.94;100771.97;5047527;28;19913;-79
2023/02/23 08:12:25;;;;;;;;;;;;;;;10.17;82.07;100774.88;5025784;28;19913;-79
2023/02/23 08:15:17;;;;;;;;;;;;;;;10.25;81.79;100766.00;5017368;28;19913;-77
2023/02/23 08:18:10;;;;;;;;;;;;;;;10.56;80.21;100776.88;5013705;28;20375;-77
2023/02/23 08:21:03;;;;;;;;;;;;;;;10.52;80.01;100775.06;5014424;28;20370;-79
2023/02/23 08:23:50;;;;;;;;;;;;;;;10.57;79.69;100777.66;5037043;28;19913;-78
2023/02/23 08:26:42;;;;;;;;;;;;;;;10.71;79.40;100772.94;5032698;28;19921;-78
2023/02/23 08:29:34;;;;;;;;;;;;;;;10.90;78.40;100770.75;5022107;28;19913;-77
2023/02/23 08:32:26;;;;;;;;;;;;;;;10.54;79.08;100743.75;5015314;28;19913;-77
2023/02/23 08:35:16;;;;;;;;;;;;;;;11.10;77.68;100780.22;5020006;28;19913;-77
2023/02/23 08:38:08;;;;;;;;;;;;;;;11.34;77.64;100782.50;5010389;28;19914;-79
2023/02/23 08:41:00;;;;;;;;;;;;;;;11.61;75.95;100784.13;5014855;28;19914;-77
2023/02/23 08:43:52;;;;;;;;;;;;;;;11.92;74.20;100784.81;5023531;28;19913;-80
2023/02/23 08:46:44;;;;;;;;;;;;;;;11.18;76.31;100781.34;5030756;28;19920;-78
2023/02/23 08:49:36;;;;;;;;;;;;;;;11.16;77.29;100792.59;5028253;28;20378;-78
2023/02/23 08:52:28;;;;;;;;;;;;;;;11.04;77.31;100793.19;5033255;28;19912;-78
2023/02/23 08:55:20;;;;;;;;;;;;;;;11.15;77.11;100788.25;5022308;28;19913;-77
2023/02/23 08:58:13;;;;;;;;;;;;;;;11.23;76.73;100786.66;5018157;28;20294;-77
2023/02/23 09:01:05;;;;;;;;;;;;;;;11.27;76.80;100790.38;5014311;28;19913;-78
2023/02/23 09:03:57;;;;;;;;;;;;;;;11.37;76.31;100798.22;5013623;28;20286;-78
2023/02/23 09:06:49;;;;;;;;;;;;;;;11.31;76.24;100807.66;5030904;28;20297;-77
2023/02/23 09:09:41;;;;;;;;;;;;;;;11.58;75.75;100799.19;5031608;28;19913;-77
2023/02/23 09:12:30;;;;;;;;;;;;;;;11.83;74.47;100806.63;5028673;28;20382;-78
2023/02/23 09:15:22;;;;;;;;;;;;;;;11.31;75.92;100799.50;5026919;28;19914;-77
2023/02/23 09:18:16;;;;;;;;;;;;;;;11.24;76.80;100794.50;5017305;28;19913;-77
2023/02/23 09:21:08;;;;;;;;;;;;;;;11.23;76.72;100800.25;5012950;28;19914;-78
2023/02/23 09:24:00;;;;;;;;;;;;;;;11.31;76.22;100802.22;5013112;28;19913;-77
2023/02/23 09:26:52;;;;;;;;;;;;;;;11.11;76.39;100793.53;5015190;28;19926;-77
2023/02/23 09:29:44;;;;;;;;;;;;;;;11.39;75.91;100802.22;5031015;28;19912;-74
2023/02/23 09:32:36;;;;;;;;;;;;;;;11.19;75.65;100804.75;5024987;28;19947;-74
2023/02/23 09:35:28;;;;;;;;;;;;;;;11.09;76.34;100806.66;5016279;28;19913;-74
2023/02/23 09:38:20;;;;;;;;;;;;;;;11.20;76.48;100814.50;5032810;28;19913;-74
2023/02/23 09:41:20;;;;;;;;;;;;;;;11.21;76.74;100807.97;5032298;28;19917;-74
2023/02/23 09:44:12;;;;;;;;;;;;;;;11.28;76.30;100811.00;5021002;28;19935;-74
2023/02/23 09:47:08;;;;;;;;;;;;;;;11.25;76.47;100811.66;5032515;28;20425;-75
2023/02/23 09:50:01;;;;;;;;;;;;;;;11.15;77.36;100810.03;5027998;28;19925;-73
2023/02/23 09:52:54;;;;;;;;;;;;;;;11.15;77.48;100812.75;5023731;28;20305;-74
2023/02/23 09:55:46;;;;;;;;;;;;;;;11.47;76.13;100809.63;5031239;28;19912;-73
2023/02/23 09:58:36;;;;;;;;;;;;;;;11.53;75.78;100813.75;5033393;28;20305;-73
2023/02/23 10:01:43;;;;;;;;;;;;;;;11.54;76.56;100809.91;5027980;28;19913;-73
2023/02/23 10:04:43;;;;;;;;;;;;;;;11.61;75.90;100816.81;5016155;28;20382;-74
2023/02/23 10:07:38;;;;;;;;;;;;;;;11.58;75.25;100813.59;5013791;28;19917;-74
2023/02/23 10:10:47;;;;;;;;;;;;;;;11.46;76.42;100821.63;5010538;28;19912;-75
2023/02/23 10:13:39;;;;;;;;;;;;;;;11.51;75.92;100818.75;5013690;28;20317;-77
2023/02/23 10:16:43;;;;;;;;;;;;;;;11.72;75.49;100824.38;5016831;28;19913;-72
2023/02/23 10:19:42;;;;;;;;;;;;;;;11.59;76.05;100825.31;5010353;28;19913;-73
2023/02/23 10:22:36;;;;;;;;;;;;;;;11.71;75.00;100827.41;5007981;28;19917;-74
2023/02/23 10:25:30;;;;;;;;;;;;;;;11.95;74.61;100825.03;5015489;28;19913;-74
2023/02/23 10:28:25;;;;;;;;;;;;;;;11.65;75.96;100824.03;5006279;28;19984;-74
2023/02/23 10:31:37;;;;;;;;;;;;;;;11.81;76.00;100825.19;5006014;28;19913;-74
2023/02/23 10:34:30;;;;;;;;;;;;;;;11.49;76.62;100817.44;5035770;28;19912;-73
2023/02/23 10:37:22;;;;;;;;;;;;;;;11.64;76.55;100822.44;5004030;28;19917;-74
2023/02/23 10:40:16;;;;;;;;;;;;;;;11.87;75.24;100821.19;5013604;28;20378;-73
2023/02/23 10:43:09;;;;;;;;;;;;;;;12.04;74.27;100820.38;5016136;28;19913;-73
2023/02/23 10:46:01;;;;;;;;;;;;;;;11.85;75.06;100826.16;5011655;28;20289;-74
2023/02/23 10:48:54;;;;;;;;;;;;;;;11.99;74.82;100823.25;5012134;28;19921;-73
2023/02/23 10:51:45;;;;;;;;;;;;;;;11.67;75.63;100824.53;5012120;28;19921;-73
2023/02/23 10:54:43;;;;;;;;;;;;;;;11.69;75.70;100827.72;5021421;28;19913;-73
2023/02/23 10:57:35;;;;;;;;;;;;;;;11.89;74.60;100824.38;5019436;28;19913;-74
2023/02/23 11:00:31;;;;;;;;;;;;;;;12.19;73.44;100821.81;5011973;28;19913;-74
2023/02/23 11:03:28;;;;;;;;;;;;;;;11.82;74.80;100821.34;5010635;28;19913;-74
2023/02/23 11:06:34;;;;;;;;;;;;;;;11.79;74.13;100821.97;5012030;28;20282;-73
2023/02/23 11:09:29;;;;;;;;;;;;;;;11.91;73.66;100811.25;5013615;28;20282;-73
2023/02/23 11:12:22;;;;;;;;;;;;;;;12.01;74.32;100810.13;5015256;28;20329;-73
2023/02/23 11:15:28;;;;;;;;;;;;;;;12.52;71.65;100803.75;5018583;28;19914;-73
2023/02/23 11:18:24;;;;;;;;;;;;;;;12.03;73.84;100804.34;5012076;28;19917;-74
2023/02/23 11:21:18;;;;;;;;;;;;;;;11.99;74.04;100804.97;5015251;28;19913;-73
2023/02/23 11:24:26;;;;;;;;;;;;;;;12.60;72.09;100792.00;5015430;28;19913;-74
2023/02/23 11:27:25;;;;;;;;;;;;;;;12.44;72.66;100793.69;5015469;28;19917;-73
2023/02/23 11:30:17;;;;;;;;;;;;;;;11.94;72.85;100798.91;5015429;28;20370;-73
2023/02/23 11:33:12;;;;;;;;;;;;;;;12.62;71.13;100783.50;5014956;28;20370;-74
2023/02/23 11:36:14;;;;;;;;;;;;;;;13.17;68.88;100788.88;5026574;28;19913;-73
2023/02/23 11:39:10;;;;;;;;;;;;;;;12.59;70.87;100790.44;5027562;28;19913;-73
2023/02/23 11:42:26;;;;;;;;;;;;;;;12.67;69.97;100784.13;5034306;28;20404;-73
2023/02/23 11:45:18;;;;;;;;;;;;;;;12.65;69.97;100783.63;5018827;28;19913;-73
2023/02/23 11:48:20;;;;;;;;;;;;;;;12.64;70.42;100779.34;5018850;28;19917;-73
2023/02/23 11:51:12;;;;;;;;;;;;;;;13.50;66.78;100783.53;5006755;28;20378;-73
2023/02/23 11:54:04;;;;;;;;;;;;;;;12.97;68.08;100773.22;5008510;28;19932;-72
2023/02/23 11:56:56;;;;;;;;;;;;;;;12.90;68.17;100775.69;5009660;28;19921;-73
2023/02/23 11:59:48;;;;;;;;;;;;;;;13.60;66.44;100777.66;5012410;28;19914;-74
2023/02/23 12:02:45;;;;;;;;;;;;;;;13.43;65.75;100775.84;5010546;28;19914;-73
2023/02/23 12:05:35;;;;;;;;;;;;;;;12.83;67.79;100771.53;5007985;28;19913;-73
2023/02/23 12:08:33;;;;;;;;;;;;;;;13.07;66.14;100765.47;5014594;28;19917;-73
2023/02/23 12:11:26;;;;;;;;;;;;;;;13.92;64.83;100763.22;5039220;28;19913;-74
2023/02/23 12:14:51;;;;;;;;;;;;;;;13.39;65.23;100772.19;5008461;28;20298;-73
2023/02/23 12:17:45;;;;;;;;;;;;;;;14.51;62.07;100768.41;4940906;28;20323;-75
2023/02/23 12:20:38;;;;;;;;;;;;;;;13.96;64.18;100764.16;5024907;28;19913;-72
2023/02/23 12:23:32;;;;;;;;;;;;;;;13.15;66.93;100764.66;5024893;28;19913;-72
2023/02/23 12:26:25;;;;;;;;;;;;;;;13.29;66.66;100761.66;5028843;28;19913;-72
2023/02/23 12:29:19;;;;;;;;;;;;;;;13.92;64.94;100749.53;5021429;28;20374;-72
2023/02/23 12:32:38;;;;;;;;;;;;;;;14.83;62.21;100753.06;5018393;28;19913;-72
2023/02/23 12:35:46;;;;;;;;;;;;;;;13.61;64.77;100749.97;5009577;28;19922;-72
2023/02/23 12:38:48;;;;;;;;;;;;;;;13.29;65.86;100742.53;5011206;28;19913;-71
2023/02/23 12:41:39;;;;;;;;;;;;;;;12.99;65.30;100751.88;5004573;28;19914;-72
2023/02/23 12:44:39;;;;;;;;;;;;;;;13.53;64.14;100742.66;4993640;28;20367;-72
2023/02/23 12:47:33;;;;;;;;;;;;;;;13.10;65.47;100744.91;5014925;28;20302;-72
2023/02/23 12:50:30;;;;;;;;;;;;;;;13.42;64.76;100744.19;5012464;28;20309;-71
2023/02/23 12:53:27;;;;;;;;;;;;;;;13.44;64.49;100741.16;5013124;28;19913;-72
2023/02/23 12:56:35;;;;;;;;;;;;;;;13.70;63.84;100733.53;5006382;28;19921;-72
2023/02/23 12:59:40;;;;;;;;;;;;;;;13.87;62.61;100730.63;5010132;28;19917;-72
2023/02/23 13:02:57;;;;;;;;;;;;;;;13.16;64.64;100738.13;5006918;28;19917;-71
2023/02/23 13:06:05;;;;;;;;;;;;;;;13.26;65.40;100735.00;4967709;28;20578;-71
2023/02/23 13:09:01;;;;;;;;;;;;;;;13.26;64.48;100740.47;5009342;28;20286;-71
2023/02/23 13:11:58;;;;;;;;;;;;;;;13.10;65.58;100731.25;5006017;28;19917;-71
2023/02/23 13:15:06;;;;;;;;;;;;;;;13.00;65.83;100732.44;5018135;28;19913;-71
2023/02/23 13:18:03;;;;;;;;;;;;;;;13.16;65.25;100724.47;5009184;28;19921;-71
2023/02/23 13:20:56;;;;;;;;;;;;;;;12.96;65.44;100730.69;5006793;28;19936;-71
2023/02/23 13:23:54;;;;;;;;;;;;;;;12.82;65.77;100729.00;5012940;28;19943;-70
2023/02/23 13:26:51;;;;;;;;;;;;;;;13.39;64.08;100731.22;5013426;28;19913;-70
2023/02/23 13:29:44;;;;;;;;;;;;;;;13.43;63.67;100729.41;5014878;28;20402;-72
2023/02/23 13:32:36;;;;;;;;;;;;;;;13.27;64.56;100725.69;5022281;28;19913;-71
2023/02/23 13:35:28;;;;;;;;;;;;;;;13.32;64.37;100733.69;5024564;28;19999;-71
2023/02/23 13:38:24;;;;;;;;;;;;;;;13.18;65.33;100736.69;5030188;28;20293;-70
2023/02/23 13:41:20;;;;;;;;;;;;;;;13.05;65.83;100734.19;5024701;28;19917;-71
2023/02/23 13:44:25;;;;;;;;;;;;;;;12.87;66.14;100736.19;5012399;28;20465;-70
2023/02/23 13:47:32;;;;;;;;;;;;;;;13.36;64.63;100733.81;5015998;28;19917;-70
2023/02/23 13:50:32;;;;;;;;;;;;;;;12.94;65.90;100739.22;5013054;28;19918;-71
2023/02/23 13:53:33;;;;;;;;;;;;;;;12.71;66.69;100740.59;5016555;28;19913;-70
2023/02/23 13:56:23;;;;;;;;;;;;;;;12.71;66.29;100735.94;5011495;28;19913;-70
2023/02/23 13:59:18;;;;;;;;;;;;;;;12.94;66.05;100739.22;5012694;28;19917;-71
2023/02/23 14:02:27;;;;;;;;;;;;;;;12.86;66.32;100734.59;5013403;28;19913;-70
2023/02/23 14:05:18;;;;;;;;;;;;;;;13.19;65.36;100732.81;5017254;28;19913;-71
2023/02/23 14:08:21;;;;;;;;;;;;;;;12.68;66.79;100733.91;5015256;28;19917;-71
2023/02/23 14:11:29;;;;;;;;;;;;;;;12.62;67.32;100740.66;5020923;28;20305;-71
2023/02/23 14:14:34;;;;;;;;;;;;;;;12.94;66.47;100732.94;5021532;28;20374;-71
2023/02/23 14:17:27;;;;;;;;;;;;;;;13.03;65.85;100729.03;5018432;28;19912;-71
2023/02/23 14:20:22;;;;;;;;;;;;;;;12.71;66.86;100740.59;5019010;28;19913;-71
2023/02/23 14:23:23;;;;;;;;;;;;;;;12.77;66.79;100737.38;5018243;28;19917;-71
2023/02/23 14:26:16;;;;;;;;;;;;;;;12.61;67.16;100735.53;5020878;28;19916;-71
2023/02/23 14:29:24;;;;;;;;;;;;;;;12.62;67.30;100732.47;5015747;28;19917;-71
2023/02/23 14:32:16;;;;;;;;;;;;;;;12.79;66.88;100732.41;5020849;28;20301;-71
2023/02/23 14:35:17;;;;;;;;;;;;;;;12.69;67.17;100729.25;5023543;28;20302;-71
2023/02/23 14:38:18;;;;;;;;;;;;;;;12.76;67.10;100729.50;5032065;28;19913;-71
2023/02/23 14:41:10;;;;;;;;;;;;;;;12.68;67.37;100720.25;5031605;28;20293;-71
2023/02/23 14:44:07;;;;;;;;;;;;;;;12.59;67.55;100721.44;5020854;28;19913;-71
2023/02/23 14:47:05;;;;;;;;;;;;;;;12.64;67.66;100727.50;5024473;28;19921;-71
2023/02/23 14:49:59;;;;;;;;;;;;;;;12.61;68.43;100719.97;5011135;28;19917;-71
2023/02/23 14:52:52;;;;;;;;;;;;;;;13.04;66.54;100727.09;5008678;28;20326;-71
2023/02/23 14:55:44;;;;;;;;;;;;;;;13.17;66.27;100724.16;5019253;28;19917;-71
2023/02/23 14:58:36;;;;;;;;;;;;;;;13.20;66.02;100730.88;5015847;28;19914;-72
2023/02/23 15:01:33;;;;;;;;;;;;;;;13.22;66.04;100729.41;5014596;28;19997;-72
2023/02/23 15:04:25;;;;;;;;;;;;;;;13.36;65.40;100729.13;5018931;28;19914;-71
2023/02/23 15:07:24;;;;;;;;;;;;;;;13.38;64.95;100723.34;5016422;28;19913;-72
2023/02/23 15:10:19;;;;;;;;;;;;;;;13.45;64.53;100727.16;5027571;28;19913;-71
2023/02/23 15:13:13;;;;;;;;;;;;;;;13.35;65.05;100729.50;5020992;28;19913;-71
2023/02/23 15:16:06;;;;;;;;;;;;;;;13.41;65.20;100731.66;5027642;28;20289;-71
2023/02/23 15:19:00;;;;;;;;;;;;;;;13.46;65.25;100730.69;5026865;28;19921;-71
2023/02/23 15:21:56;;;;;;;;;;;;;;;13.43;65.23;100726.69;5021327;28;19913;-71
2023/02/23 15:24:48;;;;;;;;;;;;;;;13.42;64.73;100725.09;5016383;28;19913;-71
2023/02/23 15:27:43;;;;;;;;;;;;;;;13.37;65.13;100724.47;5025648;28;19918;-71
2023/02/23 15:30:47;;;;;;;;;;;;;;;13.35;65.07;100718.56;5024558;28;19913;-71
2023/02/23 15:33:37;;;;;;;;;;;;;;;13.32;65.06;100727.41;5033194;28;19913;-71
2023/02/23 15:36:26;;;;;;;;;;;;;;;13.29;65.25;100723.44;5017379;28;20327;-71
2023/02/23 15:39:19;;;;;;;;;;;;;;;13.21;65.59;100725.06;4995648;28;19918;-71
2023/02/23 15:42:12;;;;;;;;;;;;;;;13.22;65.68;100728.59;5014115;28;19914;-71
2023/02/23 15:45:04;;;;;;;;;;;;;;;13.11;66.03;100722.75;5021931;28;19917;-71
2023/02/23 15:47:56;;;;;;;;;;;;;;;13.08;66.38;100717.13;5018035;28;19925;-71
2023/02/23 15:50:51;;;;;;;;;;;;;;;13.13;66.19;100722.41;5024270;28;19913;-71
2023/02/23 15:53:43;;;;;;;;;;;;;;;13.12;66.61;100729.00;5026970;28;19921;-72
2023/02/23 15:56:35;;;;;;;;;;;;;;;13.12;66.80;100720.81;5033234;28;19913;-71
2023/02/23 15:59:33;;;;;;;;;;;;;;;13.12;65.96;100710.69;5018125;28;19914;-71
2023/02/23 16:02:26;;;;;;;;;;;;;;;13.15;66.20;100720.16;5014278;28;19913;-71
2023/02/23 16:05:21;;;;;;;;;;;;;;;13.13;66.37;100715.03;5014534;28;19912;-71
2023/02/23 16:08:24;;;;;;;;;;;;;;;13.09;66.64;100710.53;5016876;28;19918;-71
2023/02/23 16:11:16;;;;;;;;;;;;;;;13.06;66.79;100713.91;5007123;28;19913;-70
2023/02/23 16:14:15;;;;;;;;;;;;;;;12.99;66.87;100711.72;5037716;28;20377;-70